Pagrindinis puslapis
METAR-TAF:

METAR-TAF

Oro uostai :

Groningenas, Nyderlandai

platuma: 53-08N, ilguma: 006-35E, Aukštis: 4 m

Dabartinis oras

Ataskaita buvo paskelbta 27 minutes, ne 23:25 UTC
Vėjas 7 kt iš Rytų
Temperatūra 2°C
Drėgmė 69%
Slėgis 1030 hPa
Matomumas 10 km arba daugiau

METAR: EHGG 302325Z AUTO 08007KT 9999 NCD 02/M03 Q1030

Laikas: 01:52 (23:52 UTC)

Prognozė

Ataskaita buvo paskelbta 42 minutes, ne 23:10 UTC
Prognozė galioja nuo 31 metu 00 UTC su 01 metu 06 UTC
Vėjas 8 kt iš Rytų/Šiaurės Rytų
Matomumas 10 km arba daugiau
nėra debesų žemiau 1500 m ir nėra kamuolinių lietaus debesų

TAF: EHGG 302310Z 3100/0106 07008KT CAVOK

Orai ataskaitas ir orų prognozės (METAR, TAF).

turimą stotys yra geltonos ir raudonos taškus žemėlapyje.

Perkelti pele per norėdami pamatyti stoties vardą.

Tada spustelėkite, norėdami matyti oro stebėjimo ir prognozės.

Norėdami pakeisti žemėlapį: spustelėkite ant žalios mygtukų su juodo kryžiaus žemyn,; žalią mygtuką su brūkšneliu, jei norite nutolinti; arba žalių rodyklių gretimoms žemėlapius.


METAR-TAF: